Time;durP1;ratioP1;P1;durP2;ratioP2;P2;SDS_P1;SDS_P2;PMS_P1;PMS_P2;Temp;Humidity;BMP_temperature;BMP_pressure;BME280_temperature;BME280_humidity;BME280_pressure;Samples;Min_cycle;Max_cycle;Signal;HPM_P1;HPM_P2
2022/04/04 00:01:18;;;;;;;0.00;0.00;;;;;;;-3.39;93.83;99099.31;5008362;28;20416;-52
2022/04/04 00:03:46;;;;;;;0.00;0.00;;;;;;;-3.38;93.76;99107.81;5006779;28;20231;-51
2022/04/04 00:06:13;;;;;;;0.00;0.00;;;;;;;-3.30;94.08;99099.00;5008736;28;20803;-49
2022/04/04 00:08:40;;;;;;;0.00;0.00;;;;;;;-3.25;93.41;99093.75;5010734;28;20194;-53
2022/04/04 00:11:07;;;;;;;0.00;0.00;;;;;;;-3.33;93.78;99088.91;5030329;28;20185;-52
2022/04/04 00:13:35;;;;;;;0.00;0.00;;;;;;;-3.35;93.76;99084.75;5030696;28;20211;-52
2022/04/04 00:16:02;;;;;;;0.00;0.00;;;;;;;-3.28;93.74;99091.31;5029554;28;20287;-50
2022/04/04 00:18:29;;;;;;;0.00;0.00;;;;;;;-3.35;92.79;99095.75;5030361;28;20187;-48
2022/04/04 00:20:55;;;;;;;0.10;0.10;;;;;;;-3.45;92.68;99096.97;5029971;28;20223;-52
2022/04/04 00:23:22;;;;;;;0.00;0.00;;;;;;;-3.52;93.40;99093.78;5029712;28;20222;-51
2022/04/04 00:25:49;;;;;;;0.00;0.00;;;;;;;-3.60;93.32;99100.84;5029966;28;20213;-50
2022/04/04 00:28:16;;;;;;;0.00;0.00;;;;;;;-3.61;93.73;99097.44;5030257;28;20652;-50
2022/04/04 00:30:46;;;;;;;0.00;0.00;;;;;;;-3.63;94.03;99094.13;5030143;28;20172;-53
2022/04/04 00:33:13;;;;;;;0.00;0.00;;;;;;;-3.62;94.47;99095.78;5030168;28;20176;-50
2022/04/04 00:35:40;;;;;;;0.00;0.00;;;;;;;-3.57;94.44;99095.66;5029696;28;20182;-49
2022/04/04 00:38:08;;;;;;;0.00;0.00;;;;;;;-3.67;93.91;99094.28;5029960;28;20204;-51
2022/04/04 00:40:35;;;;;;;0.00;0.00;;;;;;;-3.73;94.35;99088.50;5029766;28;20214;-50
2022/04/04 00:43:02;;;;;;;0.00;0.00;;;;;;;-3.75;94.73;99094.53;5030247;28;20197;-52
2022/04/04 00:45:29;;;;;;;0.00;0.00;;;;;;;-3.84;94.55;99090.53;5030051;28;20198;-49
2022/04/04 00:47:57;;;;;;;0.00;0.00;;;;;;;-3.81;95.57;99094.72;5029970;28;20191;-51
2022/04/04 00:50:24;;;;;;;0.00;0.00;;;;;;;-3.83;95.37;99088.84;5030180;28;20188;-51
2022/04/04 00:52:51;;;;;;;0.00;0.00;;;;;;;-3.85;95.41;99081.22;5030084;28;20187;-52
2022/04/04 00:55:18;;;;;;;0.00;0.00;;;;;;;-3.83;95.97;99081.19;5027761;28;20299;-49
2022/04/04 00:57:45;;;;;;;0.10;0.10;;;;;;;-3.86;95.98;99082.94;5030145;28;20606;-48
2022/04/04 01:00:13;;;;;;;0.00;0.00;;;;;;;-3.88;95.63;99078.75;5029604;28;20245;-49
2022/04/04 01:02:41;;;;;;;0.00;0.00;;;;;;;-3.88;95.71;99071.97;5030054;28;20254;-49
2022/04/04 01:05:10;;;;;;;0.10;0.10;;;;;;;-3.94;95.86;99074.72;5029203;28;20219;-50
2022/04/04 01:07:38;;;;;;;0.03;0.03;;;;;;;-3.98;96.50;99072.28;5029718;28;20198;-51
2022/04/04 01:10:07;;;;;;;0.00;0.00;;;;;;;-3.92;96.05;99072.94;5033267;28;20184;-50
2022/04/04 01:12:34;;;;;;;0.00;0.00;;;;;;;-4.01;95.51;99076.59;5033710;28;20184;-54
2022/04/04 01:15:01;;;;;;;0.00;0.00;;;;;;;-3.96;96.30;99075.63;5033134;28;20293;-50
2022/04/04 01:17:29;;;;;;;0.00;0.00;;;;;;;-3.89;96.55;99072.00;5033568;28;20190;-49
2022/04/04 01:19:56;;;;;;;0.00;0.00;;;;;;;-3.87;95.63;99072.78;5033408;28;20197;-54
2022/04/04 01:22:24;;;;;;;0.00;0.00;;;;;;;-3.92;95.04;99069.53;5033766;28;20275;-50
2022/04/04 01:24:53;;;;;;;0.00;0.00;;;;;;;-3.85;95.12;99065.91;5033025;28;20714;-50
2022/04/04 01:27:20;;;;;;;0.00;0.00;;;;;;;-3.87;94.82;99062.59;5033577;28;20544;-51
2022/04/04 01:29:47;;;;;;;0.00;0.00;;;;;;;-3.85;95.29;99060.81;5033217;28;20681;-49
2022/04/04 01:32:14;;;;;;;0.00;0.00;;;;;;;-3.80;95.03;99058.13;5033354;28;20187;-50
2022/04/04 01:34:41;;;;;;;0.10;0.10;;;;;;;-3.84;94.90;99054.84;5033415;28;20757;-52
2022/04/04 01:37:08;;;;;;;0.00;0.00;;;;;;;-3.82;94.50;99050.50;5033393;28;20179;-50
2022/04/04 01:39:35;;;;;;;0.00;0.00;;;;;;;-3.92;94.26;99039.78;5033527;28;20187;-52
2022/04/04 01:42:04;;;;;;;0.00;0.00;;;;;;;-3.86;95.16;99043.84;5033282;28;20219;-50
2022/04/04 01:44:31;;;;;;;0.00;0.00;;;;;;;-3.95;95.03;99039.03;5032346;28;20208;-51
2022/04/04 01:47:00;;;;;;;0.10;0.10;;;;;;;-3.95;95.04;99044.13;5032030;28;20195;-50
2022/04/04 01:49:27;;;;;;;0.00;0.00;;;;;;;-3.97;94.93;99033.16;5033030;28;20191;-51
2022/04/04 01:51:53;;;;;;;0.00;0.00;;;;;;;-4.04;94.86;99032.53;5031476;28;20560;-51
2022/04/04 01:54:20;;;;;;;0.00;0.00;;;;;;;-4.08;94.99;99044.53;5032881;28;20714;-52
2022/04/04 01:56:47;;;;;;;0.00;0.00;;;;;;;-4.08;95.80;99034.31;5033162;28;20687;-51
2022/04/04 01:59:15;;;;;;;0.00;0.00;;;;;;;-4.09;94.99;99036.94;5033020;28;20188;-49
2022/04/04 02:01:42;;;;;;;0.03;0.03;;;;;;;-4.13;95.02;99032.81;5032983;28;20216;-52
2022/04/04 02:04:10;;;;;;;0.00;0.00;;;;;;;-4.22;95.27;99041.56;5019439;28;20222;-50
2022/04/04 02:06:37;;;;;;;0.00;0.00;;;;;;;-4.20;96.10;99034.69;5010709;28;20232;-52
2022/04/04 02:09:05;;;;;;;0.00;0.00;;;;;;;-4.25;96.61;99031.50;5011540;28;20195;-49
2022/04/04 02:11:32;;;;;;;0.00;0.00;;;;;;;-4.24;96.34;99033.16;5008236;28;20191;-51
2022/04/04 02:13:59;;;;;;;0.00;0.00;;;;;;;-4.21;96.32;99025.38;5000738;28;20213;-52
2022/04/04 02:16:27;;;;;;;0.00;0.00;;;;;;;-4.26;96.02;99033.19;5001864;28;20211;-50
2022/04/04 02:18:53;;;;;;;0.00;0.00;;;;;;;-4.28;96.63;99029.03;5002675;28;20196;-52
2022/04/04 02:21:20;;;;;;;0.00;0.00;;;;;;;-4.30;96.79;99023.97;5001013;28;20216;-52
2022/04/04 02:23:48;;;;;;;0.00;0.00;;;;;;;-4.34;97.01;99030.03;5002125;28;20220;-54
2022/04/04 02:26:15;;;;;;;0.00;0.00;;;;;;;-4.37;97.85;99022.50;5002233;28;20664;-52
2022/04/04 02:28:41;;;;;;;0.00;0.00;;;;;;;-4.36;97.49;99012.25;5001989;28;20207;-49
2022/04/04 02:31:08;;;;;;;0.03;0.03;;;;;;;-4.39;96.84;99008.97;5000982;28;20190;-49
2022/04/04 02:33:37;;;;;;;0.10;0.10;;;;;;;-4.43;96.95;99005.69;5002815;28;20218;-51
2022/04/04 02:36:04;;;;;;;0.00;0.00;;;;;;;-4.41;97.37;99000.53;5001321;28;20198;-49
2022/04/04 02:38:31;;;;;;;0.00;0.00;;;;;;;-4.37;97.62;98997.84;5009545;28;20204;-51
2022/04/04 02:40:59;;;;;;;0.00;0.00;;;;;;;-4.30;96.46;98999.34;5011625;28;20259;-52
2022/04/04 02:43:26;;;;;;;0.00;0.00;;;;;;;-4.30;96.62;98995.94;5012294;28;20697;-49
2022/04/04 02:45:53;;;;;;;0.00;0.00;;;;;;;-4.30;96.26;98996.78;5011798;28;20189;-52
2022/04/04 02:48:21;;;;;;;0.10;0.10;;;;;;;-4.35;96.40;99001.19;5012040;28;20232;-52
2022/04/04 02:50:49;;;;;;;0.00;0.00;;;;;;;-4.38;95.77;98997.88;5011715;28;20192;-51
2022/04/04 02:53:16;;;;;;;0.10;0.10;;;;;;;-4.40;95.68;99005.59;5011966;28;20753;-52
2022/04/04 02:58:24;;;;;;;0.10;0.10;;;;;;;-4.42;96.68;98988.66;4977986;28;20639;-51
2022/04/04 03:00:50;;;;;;;0.00;0.00;;;;;;;-4.42;96.47;98988.66;5011544;28;20261;-49
2022/04/04 03:03:17;;;;;;;0.00;0.00;;;;;;;-4.45;96.73;98992.16;5011524;28;20216;-48
2022/04/04 03:05:44;;;;;;;0.00;0.00;;;;;;;-4.37;96.86;98994.44;5011443;28;20188;-50
2022/04/04 03:08:12;;;;;;;0.10;0.10;;;;;;;-4.31;96.38;99002.75;5008317;28;20188;-50
2022/04/04 03:10:39;;;;;;;0.00;0.00;;;;;;;-4.29;95.80;98997.59;5009148;28;20655;-49
2022/04/04 03:13:06;;;;;;;0.10;0.10;;;;;;;-4.34;96.57;98995.22;5011315;28;20181;-49
2022/04/04 03:15:35;;;;;;;0.00;0.00;;;;;;;-4.41;96.10;98993.72;5011376;28;20229;-49
2022/04/04 03:18:03;;;;;;;0.03;0.03;;;;;;;-4.42;96.57;98996.31;5011786;28;20192;-50
2022/04/04 03:20:31;;;;;;;0.07;0.07;;;;;;;-4.45;96.52;98994.69;5011392;28;20279;-49
2022/04/04 03:23:00;;;;;;;0.10;0.10;;;;;;;-4.50;96.23;98987.19;5017994;28;20247;-49
2022/04/04 03:25:29;;;;;;;0.00;0.00;;;;;;;-4.52;96.18;98988.13;5031252;28;20241;-49
2022/04/04 03:27:56;;;;;;;0.00;0.00;;;;;;;-4.53;96.03;98987.28;5019362;28;20677;-49
2022/04/04 03:30:25;;;;;;;0.10;0.10;;;;;;;-4.49;96.00;98988.03;5008498;28;20196;-50
2022/04/04 03:32:54;;;;;;;0.10;0.10;;;;;;;-4.39;95.23;98981.78;5007803;28;20604;-49
2022/04/04 03:35:23;;;;;;;0.00;0.00;;;;;;;-4.41;95.46;98983.53;5013304;28;20196;-49
2022/04/04 03:37:52;;;;;;;0.10;0.10;;;;;;;-4.45;95.63;98992.16;5030977;28;20261;-48
2022/04/04 03:40:20;;;;;;;0.00;0.00;;;;;;;-4.43;95.25;98982.75;5030693;28;20253;-50
2022/04/04 03:42:50;;;;;;;0.00;0.00;;;;;;;-4.35;94.89;98982.50;5030929;28;20686;-51
2022/04/04 03:45:19;;;;;;;0.00;0.00;;;;;;;-4.47;94.87;98988.81;5028999;28;20222;-52
2022/04/04 03:47:46;;;;;;;0.00;0.00;;;;;;;-4.48;95.76;98982.88;5030863;28;20198;-51
2022/04/04 03:50:14;;;;;;;0.03;0.03;;;;;;;-4.46;94.63;98986.22;5030168;28;20187;-49
2022/04/04 03:52:41;;;;;;;0.10;0.10;;;;;;;-4.58;94.56;98990.84;5030251;28;20188;-51
2022/04/04 03:55:11;;;;;;;0.00;0.00;;;;;;;-4.62;94.85;98990.94;5030101;28;20215;-52
2022/04/04 03:57:38;;;;;;;0.10;0.10;;;;;;;-4.61;95.00;98982.44;5030715;28;20269;-52
2022/04/04 04:00:07;;;;;;;0.10;0.10;;;;;;;-4.68;94.85;98992.81;5030257;28;20194;-49
2022/04/04 04:02:35;;;;;;;0.00;0.00;;;;;;;-4.69;96.10;98986.91;5030921;28;20257;-50
2022/04/04 04:05:02;;;;;;;0.00;0.00;;;;;;;-4.74;95.92;98988.75;5028757;28;20808;-49
2022/04/04 04:07:29;;;;;;;0.00;0.00;;;;;;;-4.78;96.35;98984.63;5030820;28;20194;-51
2022/04/04 04:09:56;;;;;;;0.00;0.00;;;;;;;-4.80;96.51;98979.59;5010829;28;20188;-53
2022/04/04 04:12:23;;;;;;;0.00;0.00;;;;;;;-4.67;95.81;98979.22;5010578;28;20210;-50
2022/04/04 04:14:52;;;;;;;0.00;0.00;;;;;;;-4.58;96.08;98967.94;5010082;28;20270;-50
2022/04/04 04:17:21;;;;;;;0.07;0.07;;;;;;;-4.57;95.34;98967.88;5009390;28;20275;-51
2022/04/04 04:22:34;;;;;;;0.00;0.00;;;;;;;-4.63;95.51;98968.06;5008132;28;20233;-51
2022/04/04 04:25:01;;;;;;;0.00;0.00;;;;;;;-4.70;94.65;98964.88;5010320;28;20216;-52
2022/04/04 04:27:28;;;;;;;0.00;0.00;;;;;;;-4.73;95.35;98962.41;5010694;28;20463;-52
2022/04/04 04:29:55;;;;;;;0.00;0.00;;;;;;;-4.77;95.86;98961.66;5010324;28;20188;-50
2022/04/04 04:32:24;;;;;;;0.07;0.07;;;;;;;-4.76;95.34;98962.50;5009386;28;20572;-52
2022/04/04 04:34:51;;;;;;;0.00;0.00;;;;;;;-4.80;96.07;98960.94;5010076;28;20258;-51
2022/04/04 04:37:18;;;;;;;0.00;0.00;;;;;;;-4.73;96.54;98957.31;5010616;28;20195;-50
2022/04/04 04:39:45;;;;;;;0.00;0.00;;;;;;;-4.76;96.41;98963.31;5010161;28;20670;-51
2022/04/04 04:42:12;;;;;;;0.00;0.00;;;;;;;-4.69;96.39;98961.44;5010474;28;20215;-51
2022/04/04 04:44:39;;;;;;;0.00;0.00;;;;;;;-4.62;96.48;98956.97;5009321;28;20691;-52
2022/04/04 04:47:07;;;;;;;0.00;0.00;;;;;;;-4.67;96.06;98962.22;5010575;28;20191;-52
2022/04/04 04:49:36;;;;;;;0.00;0.00;;;;;;;-4.70;96.19;98964.03;5010495;28;20270;-51
2022/04/04 04:52:03;;;;;;;0.00;0.00;;;;;;;-4.76;95.41;98957.41;5010060;28;20651;-50
2022/04/04 04:54:30;;;;;;;0.00;0.00;;;;;;;-4.79;95.94;98970.25;5009745;28;20726;-51
2022/04/04 04:56:58;;;;;;;0.00;0.00;;;;;;;-4.83;96.14;98972.06;5010059;28;20608;-50
2022/04/04 04:59:25;;;;;;;0.10;0.10;;;;;;;-4.71;95.85;98958.09;5010750;28;20192;-50
2022/04/04 05:01:52;;;;;;;0.00;0.00;;;;;;;-4.72;95.96;98960.69;5010295;28;20196;-51
2022/04/04 05:04:18;;;;;;;0.10;0.10;;;;;;;-4.69;95.71;98948.72;5009790;28;20217;-50
2022/04/04 05:06:49;;;;;;;0.10;0.10;;;;;;;-4.72;96.00;98948.81;5008085;28;20214;-51
2022/04/04 05:09:17;;;;;;;0.00;0.00;;;;;;;-4.70;94.85;98949.59;5009528;28;20226;-49
2022/04/04 05:11:44;;;;;;;0.10;0.10;;;;;;;-4.69;95.02;98956.34;5009770;28;20667;-49
2022/04/04 05:14:15;;;;;;;0.00;0.00;;;;;;;-4.57;94.18;98944.94;5009576;28;20207;-51
2022/04/04 05:16:45;;;;;;;0.00;0.00;;;;;;;-4.59;93.94;98951.78;5010427;28;20231;-50
2022/04/04 05:19:12;;;;;;;0.10;0.10;;;;;;;-4.59;94.21;98944.16;5010177;28;20192;-51
2022/04/04 05:21:40;;;;;;;0.00;0.00;;;;;;;-4.53;93.84;98945.69;5010181;28;20252;-49
2022/04/04 05:24:09;;;;;;;0.00;0.00;;;;;;;-4.52;94.21;98947.34;5009731;28;20850;-49
2022/04/04 05:26:36;;;;;;;0.00;0.00;;;;;;;-4.50;94.72;98948.16;5010245;28;20552;-52
2022/04/04 05:29:03;;;;;;;0.10;0.10;;;;;;;-4.44;94.53;98942.84;5010251;28;20207;-50
2022/04/04 05:31:31;;;;;;;0.00;0.00;;;;;;;-4.38;93.90;98940.13;5009927;28;20184;-52
2022/04/04 05:33:58;;;;;;;0.00;0.00;;;;;;;-4.39;93.87;98946.09;5009389;28;20227;-52
2022/04/04 05:36:26;;;;;;;0.00;0.00;;;;;;;-4.33;94.33;98953.56;5014591;28;20202;-50
2022/04/04 05:38:53;;;;;;;0.00;0.00;;;;;;;-4.25;93.86;98948.19;5029800;28;20241;-51
2022/04/04 05:41:22;;;;;;;0.00;0.00;;;;;;;-4.19;93.32;98953.09;5029605;28;20200;-50
2022/04/04 05:43:49;;;;;;;0.00;0.00;;;;;;;-4.15;93.27;98953.81;5029587;28;20219;-51
2022/04/04 05:46:18;;;;;;;0.00;0.00;;;;;;;-4.13;93.52;98957.16;5028975;28;20602;-49
2022/04/04 05:48:45;;;;;;;0.00;0.00;;;;;;;-3.95;93.06;98954.88;5029648;28;20192;-50
2022/04/04 05:51:13;;;;;;;0.00;0.00;;;;;;;-3.94;91.56;98954.00;5028236;28;20196;-49
2022/04/04 05:53:40;;;;;;;0.00;0.00;;;;;;;-3.92;91.68;98954.78;5023357;28;20207;-51
2022/04/04 05:56:07;;;;;;;0.00;0.00;;;;;;;-3.89;91.61;98954.69;5011885;28;20206;-48
2022/04/04 05:58:36;;;;;;;0.00;0.00;;;;;;;-3.89;91.65;98955.53;5012881;28;20619;-52
2022/04/04 06:01:03;;;;;;;0.00;0.00;;;;;;;-3.87;92.74;98963.97;5012794;28;20191;-49
2022/04/04 06:03:31;;;;;;;0.00;0.00;;;;;;;-3.78;91.81;98962.81;5012895;28;20216;-49
2022/04/04 06:05:58;;;;;;;0.10;0.10;;;;;;;-3.73;91.48;98965.22;5012810;28;20692;-52
2022/04/04 06:08:25;;;;;;;0.00;0.00;;;;;;;-3.64;91.62;98962.31;5009083;28;20952;-50
2022/04/04 06:10:52;;;;;;;0.00;0.00;;;;;;;-3.60;92.23;98963.06;5008791;28;20201;-49
2022/04/04 06:13:20;;;;;;;0.00;0.00;;;;;;;-3.57;91.68;98960.41;5012473;28;20212;-49
2022/04/04 06:15:48;;;;;;;0.10;0.10;;;;;;;-3.51;91.70;98964.44;5012150;28;20188;-51
2022/04/04 06:18:15;;;;;;;0.00;0.00;;;;;;;-3.45;91.97;98967.63;5012922;28;20671;-49
2022/04/04 06:20:43;;;;;;;0.00;0.00;;;;;;;-3.40;90.72;98967.47;5012535;28;20233;-49
2022/04/04 06:23:11;;;;;;;0.00;0.00;;;;;;;-3.36;90.57;98968.19;5011409;28;20310;-49
2022/04/04 06:25:38;;;;;;;0.10;0.10;;;;;;;-3.35;90.06;98972.41;5012981;28;20195;-53
2022/04/04 06:28:05;;;;;;;0.00;0.00;;;;;;;-3.30;90.13;98966.25;5013085;28;20200;-49
2022/04/04 06:30:34;;;;;;;0.00;0.00;;;;;;;-3.25;90.08;98963.53;5010922;28;20203;-51
2022/04/04 06:33:04;;;;;;;0.00;0.00;;;;;;;-3.19;89.67;98963.31;5009292;28;20210;-53
2022/04/04 06:35:31;;;;;;;0.00;0.00;;;;;;;-3.05;89.16;98961.97;5011388;28;20216;-50
2022/04/04 06:38:00;;;;;;;0.00;0.00;;;;;;;-3.01;89.52;98961.81;5012274;28;20186;-49
2022/04/04 06:40:27;;;;;;;0.00;0.00;;;;;;;-2.91;88.47;98964.84;5012244;28;20229;-50
2022/04/04 06:42:55;;;;;;;0.00;0.00;;;;;;;-2.83;88.91;98962.84;5012817;28;20254;-51
2022/04/04 06:45:22;;;;;;;0.00;0.00;;;;;;;-2.78;87.95;98966.94;5009556;28;20189;-49
2022/04/04 06:47:49;;;;;;;0.00;0.00;;;;;;;-2.68;86.98;98963.16;5010653;28;20682;-49
2022/04/04 06:50:17;;;;;;;0.00;0.00;;;;;;;-2.53;87.24;98959.16;5012809;28;20184;-50
2022/04/04 06:52:45;;;;;;;0.00;0.00;;;;;;;-2.45;86.64;98959.69;5013080;28;20196;-48
2022/04/04 06:55:12;;;;;;;0.00;0.00;;;;;;;-2.30;86.80;98960.81;5011525;28;20208;-49
2022/04/04 06:57:38;;;;;;;0.00;0.00;;;;;;;-2.16;86.02;98957.69;5012159;28;20187;-52
2022/04/04 07:00:08;;;;;;;0.00;0.00;;;;;;;-2.08;85.08;98963.34;5011966;28;20219;-52
2022/04/04 07:02:36;;;;;;;0.00;0.00;;;;;;;-1.93;83.69;98949.06;5012250;28;20194;-50
2022/04/04 07:05:05;;;;;;;0.00;0.00;;;;;;;-1.77;83.84;98958.66;5012002;28;20227;-48
2022/04/04 07:07:33;;;;;;;0.00;0.00;;;;;;;-1.69;82.96;98960.91;5031660;28;20190;-49
2022/04/04 07:10:00;;;;;;;0.00;0.00;;;;;;;-1.52;82.17;98953.31;5031643;28;20207;-50
2022/04/04 07:12:29;;;;;;;0.00;0.00;;;;;;;-1.50;83.26;98953.28;5031791;28;20191;-50
2022/04/04 07:14:55;;;;;;;0.00;0.00;;;;;;;-1.36;83.48;98950.94;5031567;28;20622;-49
2022/04/04 07:17:22;;;;;;;0.00;0.00;;;;;;;-1.19;82.28;98951.94;5031245;28;20188;-49
2022/04/04 07:19:49;;;;;;;0.00;0.00;;;;;;;-1.07;81.11;98959.09;5031430;28;20556;-50
2022/04/04 07:22:16;;;;;;;0.00;0.00;;;;;;;-0.92;77.91;98954.13;5015409;28;20185;-52
2022/04/04 07:24:44;;;;;;;0.00;0.00;;;;;;;-0.85;79.44;98955.53;5010753;28;20294;-49
2022/04/04 07:27:11;;;;;;;0.00;0.00;;;;;;;-0.75;77.93;98948.25;5011772;28;20276;-52
2022/04/04 07:29:38;;;;;;;0.00;0.00;;;;;;;-0.47;75.33;98950.34;5011825;28;20660;-51
2022/04/04 07:32:06;;;;;;;0.00;0.00;;;;;;;-0.15;72.22;98954.81;5011901;28;20690;-50
2022/04/04 07:34:33;;;;;;;0.00;0.00;;;;;;;0.04;72.60;98952.19;5010001;28;20209;-49
2022/04/04 07:37:00;;;;;;;0.00;0.00;;;;;;;0.19;73.10;98949.75;5011867;28;20653;-51
2022/04/04 07:39:27;;;;;;;0.00;0.00;;;;;;;0.35;72.94;98948.09;5011800;28;20288;-49
2022/04/04 07:41:55;;;;;;;0.00;0.00;;;;;;;0.46;71.51;98955.25;5011813;28;20192;-51
2022/04/04 07:44:22;;;;;;;0.00;0.00;;;;;;;0.64;70.11;98950.06;5011161;28;20711;-50
2022/04/04 07:46:49;;;;;;;0.00;0.00;;;;;;;0.77;69.59;98947.69;5011821;28;20198;-50
2022/04/04 07:49:17;;;;;;;0.00;0.00;;;;;;;0.76;70.01;98944.28;5011408;28;20268;-52
2022/04/04 07:51:43;;;;;;;0.00;0.00;;;;;;;0.86;67.66;98942.06;5010839;28;20192;-51
2022/04/04 07:54:10;;;;;;;0.00;0.00;;;;;;;1.01;68.11;98943.81;5010608;28;20215;-50
2022/04/04 07:56:37;;;;;;;0.00;0.00;;;;;;;0.86;69.85;98942.06;5010903;28;20549;-49
2022/04/04 07:59:05;;;;;;;0.00;0.00;;;;;;;1.03;69.10;98941.16;5011036;28;20193;-51
2022/04/04 08:01:32;;;;;;;0.00;0.00;;;;;;;1.21;67.07;98943.66;5011209;28;20188;-50
2022/04/04 08:03:59;;;;;;;0.00;0.00;;;;;;;1.28;68.13;98939.84;5010774;28;20224;-50
2022/04/04 08:06:26;;;;;;;0.00;0.00;;;;;;;1.49;66.45;98937.81;5010193;28;20288;-53
2022/04/04 08:08:53;;;;;;;0.00;0.00;;;;;;;1.56;67.52;98938.31;5009421;28;20188;-51
2022/04/04 08:11:20;;;;;;;0.00;0.00;;;;;;;1.72;65.56;98933.13;5008484;28;20202;-49
2022/04/04 08:13:47;;;;;;;0.00;0.00;;;;;;;1.75;64.26;98930.38;5007854;28;20213;-52
2022/04/04 08:16:16;;;;;;;0.00;0.00;;;;;;;1.71;65.08;98926.31;5010163;28;20201;-51
2022/04/04 08:18:42;;;;;;;0.00;0.00;;;;;;;1.82;63.83;98925.69;5009558;28;20277;-53
2022/04/04 08:21:09;;;;;;;0.00;0.00;;;;;;;1.86;62.37;98924.59;5003467;28;20264;-52
2022/04/04 08:23:36;;;;;;;0.00;0.00;;;;;;;1.76;61.67;98922.56;5001739;28;20584;-50
2022/04/04 08:26:03;;;;;;;0.00;0.00;;;;;;;1.90;61.30;98918.38;5000383;28;20193;-53
2022/04/04 08:28:29;;;;;;;0.00;0.00;;;;;;;2.04;60.32;98920.97;4997784;28;20264;-53
2022/04/04 08:30:56;;;;;;;0.00;0.00;;;;;;;2.08;60.67;98924.22;5003210;28;20788;-53
2022/04/04 08:33:25;;;;;;;0.00;0.00;;;;;;;2.08;61.77;98913.91;5007505;28;20214;-50
2022/04/04 08:35:53;;;;;;;0.00;0.00;;;;;;;2.17;61.09;98913.34;5010528;28;20186;-52
2022/04/04 08:38:20;;;;;;;0.00;0.00;;;;;;;2.27;60.24;98908.50;5006615;28;20200;-52
2022/04/04 08:40:49;;;;;;;0.00;0.00;;;;;;;2.35;56.56;98916.59;5010791;28;20656;-50
2022/04/04 08:43:19;;;;;;;0.00;0.00;;;;;;;2.42;58.89;98909.31;5011032;28;20218;-50
2022/04/04 08:45:49;;;;;;;0.00;0.00;;;;;;;2.36;59.58;98914.84;5010853;28;20188;-50
2022/04/04 08:48:17;;;;;;;0.00;0.00;;;;;;;2.44;60.79;98911.81;5011096;28;20205;-52
2022/04/04 08:50:45;;;;;;;0.00;0.00;;;;;;;2.46;60.51;98908.22;5007396;28;20182;-49
2022/04/04 08:53:13;;;;;;;0.00;0.00;;;;;;;2.49;60.61;98908.03;5009336;28;20192;-53
2022/04/04 08:55:40;;;;;;;0.00;0.00;;;;;;;2.54;58.32;98896.63;5007815;28;20193;-51
2022/04/04 08:58:06;;;;;;;0.00;0.00;;;;;;;2.57;58.88;98899.84;5006459;28;20193;-50
2022/04/04 09:00:36;;;;;;;0.00;0.00;;;;;;;2.63;58.36;98888.34;5008707;28;20572;-50
2022/04/04 09:03:04;;;;;;;0.00;0.00;;;;;;;2.80;58.21;98893.28;5010328;28;20693;-50
2022/04/04 09:05:32;;;;;;;0.00;0.00;;;;;;;2.95;56.14;98883.75;5005134;28;20207;-51
2022/04/04 09:08:03;;;;;;;0.00;0.00;;;;;;;3.09;56.41;98879.47;5013726;28;20210;-51
2022/04/04 09:10:35;;;;;;;0.00;0.00;;;;;;;3.02;57.42;98873.91;5007305;28;20209;-53
2022/04/04 09:13:13;;;;;;;0.00;0.00;;;;;;;3.09;55.21;98877.75;5014923;28;20256;-50
2022/04/04 09:15:57;;;;;;;0.00;0.00;;;;;;;2.92;56.96;98883.94;5013217;28;20374;-49
2022/04/04 09:18:45;;;;;;;0.00;0.00;;;;;;;3.05;55.90;98878.03;5015910;28;20202;-52
2022/04/04 09:21:13;;;;;;;0.00;0.00;;;;;;;3.08;56.64;98872.66;5017837;28;20198;-52
2022/04/04 09:24:01;;;;;;;0.00;0.00;;;;;;;3.24;54.32;98870.78;5017971;28;20676;-54
2022/04/04 09:26:33;;;;;;;0.00;0.00;;;;;;;3.28;54.67;98871.41;5018324;28;20258;-51
2022/04/04 09:29:01;;;;;;;0.00;0.00;;;;;;;3.41;54.55;98858.53;5020952;28;20208;-50
2022/04/04 09:31:29;;;;;;;0.00;0.00;;;;;;;3.43;49.36;98850.69;5017624;28;20805;-53
2022/04/04 09:34:00;;;;;;;0.00;0.00;;;;;;;3.47;51.31;98847.81;5005125;28;20206;-49
2022/04/04 09:36:27;;;;;;;0.00;0.00;;;;;;;3.46;48.96;98858.22;5014340;28;20193;-50
2022/04/04 09:38:55;;;;;;;0.00;0.00;;;;;;;3.39;49.16;98843.16;5014453;28;20199;-50
2022/04/04 09:41:25;;;;;;;0.00;0.00;;;;;;;3.48;50.05;98844.31;5014141;28;20825;-49
2022/04/04 09:43:53;;;;;;;0.00;0.00;;;;;;;3.46;52.03;98856.50;5014220;28;20205;-50
2022/04/04 09:46:21;;;;;;;0.00;0.00;;;;;;;3.54;51.79;98838.75;5011755;28;20189;-49
2022/04/04 09:49:01;;;;;;;0.00;0.00;;;;;;;3.45;50.33;98848.84;5013836;28;20192;-51
2022/04/04 09:51:35;;;;;;;0.00;0.00;;;;;;;3.47;51.98;98831.50;5010573;28;20276;-50
2022/04/04 09:54:03;;;;;;;0.00;0.00;;;;;;;3.61;50.59;98838.34;5013596;28;20300;-51
2022/04/04 09:56:31;;;;;;;0.00;0.00;;;;;;;3.65;52.00;98835.47;5014189;28;20193;-50
2022/04/04 09:59:00;;;;;;;0.00;0.00;;;;;;;3.72;51.97;98829.88;5014014;28;20653;-50
2022/04/04 10:01:27;;;;;;;0.00;0.00;;;;;;;3.72;52.90;98816.97;5013656;28;20275;-54
2022/04/04 10:03:56;;;;;;;0.00;0.00;;;;;;;3.96;53.30;98822.25;5004848;28;20216;-50
2022/04/04 10:06:26;;;;;;;0.00;0.00;;;;;;;3.97;50.69;98822.16;5004475;28;20193;-48
2022/04/04 10:08:56;;;;;;;0.00;0.00;;;;;;;3.82;50.18;98826.56;5004194;28;20215;-49
2022/04/04 10:11:24;;;;;;;0.00;0.00;;;;;;;3.93;48.23;98825.88;5002617;28;20193;-49
2022/04/04 10:13:53;;;;;;;0.00;0.00;;;;;;;3.94;51.38;98812.03;5010760;28;20201;-52
2022/04/04 10:16:22;;;;;;;0.00;0.00;;;;;;;3.77;51.84;98826.06;5013195;28;20216;-50
2022/04/04 10:18:50;;;;;;;0.00;0.00;;;;;;;3.83;52.63;98812.75;5013503;28;20272;-50
2022/04/04 10:21:19;;;;;;;0.00;0.00;;;;;;;4.21;58.68;98798.16;5013483;28;20197;-47
2022/04/04 10:23:49;;;;;;;0.00;0.00;;;;;;;5.06;56.61;98798.28;5013505;28;20222;-48
2022/04/04 10:26:19;;;;;;;0.00;0.00;;;;;;;4.89;51.53;98795.13;5009489;28;20715;-54
2022/04/04 10:28:49;;;;;;;0.00;0.00;;;;;;;4.77;51.40;98785.69;5009242;28;20272;-52
2022/04/04 10:31:18;;;;;;;0.00;0.00;;;;;;;4.59;48.63;98793.81;5009884;28;20204;-53
2022/04/04 10:33:46;;;;;;;0.00;0.00;;;;;;;4.56;48.33;98776.75;5008275;28;20220;-53
2022/04/04 10:36:15;;;;;;;0.00;0.00;;;;;;;4.44;49.97;98767.28;5010572;28;20273;-53
2022/04/04 10:38:50;;;;;;;0.00;0.00;;;;;;;4.72;49.01;98768.75;5009165;28;20185;-51
2022/04/04 10:41:18;;;;;;;0.00;0.00;;;;;;;4.78;48.47;98772.66;5003917;28;20963;-53
2022/04/04 10:43:47;;;;;;;0.00;0.00;;;;;;;4.92;48.94;98768.25;5002252;28;20210;-50
2022/04/04 10:46:15;;;;;;;0.00;0.00;;;;;;;4.78;50.90;98764.03;5001828;28;20212;-53
2022/04/04 10:48:48;;;;;;;0.00;0.00;;;;;;;4.92;49.07;98763.06;5003834;28;20188;-49
2022/04/04 10:51:17;;;;;;;0.00;0.00;;;;;;;4.86;49.16;98756.56;4993211;28;20553;-50
2022/04/04 10:53:48;;;;;;;0.00;0.00;;;;;;;4.98;49.78;98747.09;4993454;28;20299;-52
2022/04/04 10:56:21;;;;;;;0.00;0.00;;;;;;;5.08;48.97;98753.25;4992970;28;20181;-53
2022/04/04 10:58:49;;;;;;;0.00;0.00;;;;;;;5.29;45.81;98748.25;5004174;28;20673;-49
2022/04/04 11:01:18;;;;;;;0.00;0.00;;;;;;;5.16;46.10;98743.16;5010703;28;20588;-50
2022/04/04 11:04:00;;;;;;;0.00;0.00;;;;;;;5.16;43.91;98734.56;5012207;28;20699;-51
2022/04/04 11:09:26;;;;;;;0.00;0.00;;;;;;;5.14;47.23;98723.50;5008698;28;20224;-50
2022/04/04 11:12:09;;;;;;;0.00;0.00;;;;;;;5.50;46.75;98728.63;5008193;28;20199;-51
2022/04/04 11:14:43;;;;;;;0.00;0.00;;;;;;;5.56;49.04;98728.16;5010491;28;20212;-52
2022/04/04 11:17:30;;;;;;;0.00;0.00;;;;;;;5.97;45.03;98716.41;5012027;28;20223;-52
2022/04/04 11:20:04;;;;;;;0.00;0.00;;;;;;;5.37;48.71;98715.78;5011774;28;20652;-50
2022/04/04 11:22:33;;;;;;;11.97;8.17;;;;;;;5.33;49.25;98707.41;5008298;28;20277;-50
2022/04/04 11:25:04;;;;;;;14.57;8.60;;;;;;;5.56;47.75;98697.09;5008825;28;20215;-56
2022/04/04 11:27:34;;;;;;;11.10;7.93;;;;;;;5.61;52.34;98705.34;5011854;28;20189;-53
2022/04/04 11:30:02;;;;;;;11.93;8.70;;;;;;;5.86;46.99;98704.25;5011678;28;20207;-50
2022/04/04 11:32:33;;;;;;;12.87;8.67;;;;;;;5.69;48.32;98695.22;5012126;28;20193;-50
2022/04/04 11:35:08;;;;;;;12.37;8.30;;;;;;;5.66;49.50;98700.63;5011758;28;20242;-53
2022/04/04 11:37:41;;;;;;;12.03;8.10;;;;;;;5.78;49.47;98688.53;5007910;28;20192;-51
2022/04/04 11:40:13;;;;;;;11.40;8.13;;;;;;;6.00;45.55;98676.47;5002632;28;20190;-52
2022/04/04 11:42:42;;;;;;;11.37;7.60;;;;;;;5.95;46.73;98669.06;5001854;28;20185;-49
2022/04/04 11:45:10;;;;;;;9.73;7.50;;;;;;;6.31;46.45;98684.44;5000014;28;20797;-54
2022/04/04 11:47:39;;;;;;;12.73;8.87;;;;;;;5.85;47.96;98671.53;5000868;28;20717;-50
2022/04/04 11:50:08;;;;;;;12.33;8.00;;;;;;;5.83;47.19;98655.28;5001164;28;20190;-49